<?xml version="1.0" encoding="UTF-8" standalone="no" ?>
<gpx xmlns="http://www.topografix.com/GPX/1/1" xmlns:xsi="http://www.w3.org/2001/XMLSchema-instance" xsi:schemaLocation="http://www.topografix.com/GPX/1/1 http://www.topografix.com/GPX/1/1/gpx.xsd" version="1.1" creator="VisuGPX - https://www.visugpx.com">
  <metadata>
    <name>--Petit-Réderching-- OR-5625833:De Meyerhof à Enchenberg</name>
  </metadata>
  <trk>
    <name><![CDATA[--Petit-Réderching-- OR-5625833:De Meyerhof à Enchenberg]]></name>
    <trkseg>
      <trkpt lat="49.04952" lon="7.29963">
        <ele>338</ele>
        <time>2016-01-16T21:12:18Z</time>
      </trkpt>
      <trkpt lat="49.04933" lon="7.30008">
        <ele>338</ele>
        <time>2016-01-16T21:14:18Z</time>
      </trkpt>
      <trkpt lat="49.04903" lon="7.29967">
        <ele>337</ele>
        <time>2016-01-16T21:16:18Z</time>
      </trkpt>
      <trkpt lat="49.04859" lon="7.30081">
        <ele>339</ele>
        <time>2016-01-16T21:18:18Z</time>
      </trkpt>
      <trkpt lat="49.04407" lon="7.30516">
        <ele>344</ele>
        <time>2016-01-16T21:20:18Z</time>
      </trkpt>
      <trkpt lat="49.04255" lon="7.30175">
        <ele>335</ele>
        <time>2016-01-16T21:22:18Z</time>
      </trkpt>
      <trkpt lat="49.0418" lon="7.30042">
        <ele>330</ele>
        <time>2016-01-16T21:24:18Z</time>
      </trkpt>
      <trkpt lat="49.04102" lon="7.29859">
        <ele>317</ele>
        <time>2016-01-16T21:26:18Z</time>
      </trkpt>
      <trkpt lat="49.04013" lon="7.29537">
        <ele>299</ele>
        <time>2016-01-16T21:28:18Z</time>
      </trkpt>
      <trkpt lat="49.03942" lon="7.29583">
        <ele>302</ele>
        <time>2016-01-16T21:30:18Z</time>
      </trkpt>
      <trkpt lat="49.03924" lon="7.29465">
        <ele>298</ele>
        <time>2016-01-16T21:32:18Z</time>
      </trkpt>
      <trkpt lat="49.03873" lon="7.2931">
        <ele>292</ele>
        <time>2016-01-16T21:34:18Z</time>
      </trkpt>
      <trkpt lat="49.03929" lon="7.29276">
        <ele>290</ele>
        <time>2016-01-16T21:36:18Z</time>
      </trkpt>
      <trkpt lat="49.03857" lon="7.29134">
        <ele>292</ele>
        <time>2016-01-16T21:38:18Z</time>
      </trkpt>
      <trkpt lat="49.03917" lon="7.29276">
        <ele>290</ele>
        <time>2016-01-16T21:40:18Z</time>
      </trkpt>
      <trkpt lat="49.03773" lon="7.29328">
        <ele>295</ele>
        <time>2016-01-16T21:42:18Z</time>
      </trkpt>
      <trkpt lat="49.03609" lon="7.29168">
        <ele>285</ele>
        <time>2016-01-16T21:44:18Z</time>
      </trkpt>
      <trkpt lat="49.03264" lon="7.29102">
        <ele>282</ele>
        <time>2016-01-16T21:46:18Z</time>
      </trkpt>
      <trkpt lat="49.02969" lon="7.29141">
        <ele>293</ele>
        <time>2016-01-16T21:48:18Z</time>
      </trkpt>
      <trkpt lat="49.02736" lon="7.29343">
        <ele>288</ele>
        <time>2016-01-16T21:50:18Z</time>
      </trkpt>
      <trkpt lat="49.02702" lon="7.29493">
        <ele>304</ele>
        <time>2016-01-16T21:52:18Z</time>
      </trkpt>
      <trkpt lat="49.02614" lon="7.29441">
        <ele>297</ele>
        <time>2016-01-16T21:54:18Z</time>
      </trkpt>
      <trkpt lat="49.02305" lon="7.29291">
        <ele>288</ele>
        <time>2016-01-16T21:56:18Z</time>
      </trkpt>
      <trkpt lat="49.02322" lon="7.29222">
        <ele>280</ele>
        <time>2016-01-16T21:58:18Z</time>
      </trkpt>
      <trkpt lat="49.02184" lon="7.29196">
        <ele>276</ele>
        <time>2016-01-16T22:00:18Z</time>
      </trkpt>
      <trkpt lat="49.0197" lon="7.29368">
        <ele>273</ele>
        <time>2016-01-16T22:02:18Z</time>
      </trkpt>
      <trkpt lat="49.01925" lon="7.29329">
        <ele>270</ele>
        <time>2016-01-16T22:04:18Z</time>
      </trkpt>
      <trkpt lat="49.01812" lon="7.29321">
        <ele>268</ele>
        <time>2016-01-16T22:06:18Z</time>
      </trkpt>
      <trkpt lat="49.01674" lon="7.29188">
        <ele>262</ele>
        <time>2016-01-16T22:08:18Z</time>
      </trkpt>
      <trkpt lat="49.01683" lon="7.29297">
        <ele>263</ele>
        <time>2016-01-16T22:10:18Z</time>
      </trkpt>
      <trkpt lat="49.01764" lon="7.29382">
        <ele>271</ele>
        <time>2016-01-16T22:12:18Z</time>
      </trkpt>
      <trkpt lat="49.01811" lon="7.29496">
        <ele>277</ele>
        <time>2016-01-16T22:14:18Z</time>
      </trkpt>
      <trkpt lat="49.01801" lon="7.29892">
        <ele>297</ele>
        <time>2016-01-16T22:16:18Z</time>
      </trkpt>
      <trkpt lat="49.01844" lon="7.30209">
        <ele>309</ele>
        <time>2016-01-16T22:18:18Z</time>
      </trkpt>
      <trkpt lat="49.01763" lon="7.30177">
        <ele>322</ele>
        <time>2016-01-16T22:20:18Z</time>
      </trkpt>
      <trkpt lat="49.01737" lon="7.30042">
        <ele>314</ele>
        <time>2016-01-16T22:22:18Z</time>
      </trkpt>
      <trkpt lat="49.01523" lon="7.30298">
        <ele>342</ele>
        <time>2016-01-16T22:24:18Z</time>
      </trkpt>
      <trkpt lat="49.01383" lon="7.30235">
        <ele>338</ele>
        <time>2016-01-16T22:26:18Z</time>
      </trkpt>
      <trkpt lat="49.0132" lon="7.30376">
        <ele>329</ele>
        <time>2016-01-16T22:28:18Z</time>
      </trkpt>
      <trkpt lat="49.01188" lon="7.30469">
        <ele>304</ele>
        <time>2016-01-16T22:30:18Z</time>
      </trkpt>
      <trkpt lat="49.01266" lon="7.30935">
        <ele>286</ele>
        <time>2016-01-16T22:32:18Z</time>
      </trkpt>
      <trkpt lat="49.01264" lon="7.31142">
        <ele>271</ele>
        <time>2016-01-16T22:34:18Z</time>
      </trkpt>
      <trkpt lat="49.01199" lon="7.31144">
        <ele>270</ele>
        <time>2016-01-16T22:36:18Z</time>
      </trkpt>
      <trkpt lat="49.01103" lon="7.31393">
        <ele>272</ele>
        <time>2016-01-16T22:38:18Z</time>
      </trkpt>
      <trkpt lat="49.01053" lon="7.31455">
        <ele>279</ele>
        <time>2016-01-16T22:40:18Z</time>
      </trkpt>
      <trkpt lat="49.01056" lon="7.31581">
        <ele>276</ele>
        <time>2016-01-16T22:42:18Z</time>
      </trkpt>
      <trkpt lat="49.0102" lon="7.3173">
        <ele>291</ele>
        <time>2016-01-16T22:44:18Z</time>
      </trkpt>
      <trkpt lat="49.01196" lon="7.32206">
        <ele>299</ele>
        <time>2016-01-16T22:46:18Z</time>
      </trkpt>
      <trkpt lat="49.01357" lon="7.32793">
        <ele>321</ele>
        <time>2016-01-16T22:48:18Z</time>
      </trkpt>
      <trkpt lat="49.01329" lon="7.33184">
        <ele>332</ele>
        <time>2016-01-16T22:50:18Z</time>
      </trkpt>
      <trkpt lat="49.01319" lon="7.33215">
        <ele>337</ele>
        <time>2016-01-16T22:52:18Z</time>
      </trkpt>
      <trkpt lat="49.0133" lon="7.33541">
        <ele>360</ele>
        <time>2016-01-16T22:54:18Z</time>
      </trkpt>
      <trkpt lat="49.01195" lon="7.33577">
        <ele>368</ele>
        <time>2016-01-16T22:56:18Z</time>
      </trkpt>
      <trkpt lat="49.01189" lon="7.33663">
        <ele>371</ele>
        <time>2016-01-16T22:58:18Z</time>
      </trkpt>
      <trkpt lat="49.01217" lon="7.33866">
        <ele>373</ele>
        <time>2016-01-16T23:00:18Z</time>
      </trkpt>
      <trkpt lat="49.01307" lon="7.33937">
        <ele>369</ele>
        <time>2016-01-16T23:02:18Z</time>
      </trkpt>
      <trkpt lat="49.01334" lon="7.33959">
        <ele>367</ele>
        <time>2016-01-16T23:04:18Z</time>
      </trkpt>
      <trkpt lat="49.01507" lon="7.33753">
        <ele>369</ele>
        <time>2016-01-16T23:06:18Z</time>
      </trkpt>
      <trkpt lat="49.01632" lon="7.33717">
        <ele>370</ele>
        <time>2016-01-16T23:08:18Z</time>
      </trkpt>
      <trkpt lat="49.01823" lon="7.3371">
        <ele>371</ele>
        <time>2016-01-16T23:10:18Z</time>
      </trkpt>
      <trkpt lat="49.0193" lon="7.337">
        <ele>367</ele>
        <time>2016-01-16T23:12:18Z</time>
      </trkpt>
      <trkpt lat="49.0209" lon="7.33456">
        <ele>361</ele>
        <time>2016-01-16T23:14:18Z</time>
      </trkpt>
      <trkpt lat="49.02169" lon="7.33451">
        <ele>360</ele>
        <time>2016-01-16T23:16:18Z</time>
      </trkpt>
      <trkpt lat="49.02255" lon="7.33532">
        <ele>360</ele>
        <time>2016-01-16T23:18:18Z</time>
      </trkpt>
      <trkpt lat="49.02359" lon="7.33537">
        <ele>370</ele>
        <time>2016-01-16T23:20:18Z</time>
      </trkpt>
      <trkpt lat="49.02416" lon="7.33503">
        <ele>373</ele>
        <time>2016-01-16T23:22:18Z</time>
      </trkpt>
      <trkpt lat="49.02558" lon="7.33288">
        <ele>360</ele>
        <time>2016-01-16T23:24:18Z</time>
      </trkpt>
      <trkpt lat="49.02574" lon="7.33326">
        <ele>360</ele>
        <time>2016-01-16T23:26:18Z</time>
      </trkpt>
      <trkpt lat="49.02606" lon="7.33305">
        <ele>359</ele>
        <time>2016-01-16T23:28:18Z</time>
      </trkpt>
      <trkpt lat="49.02611" lon="7.33239">
        <ele>358</ele>
        <time>2016-01-16T23:30:18Z</time>
      </trkpt>
      <trkpt lat="49.0264" lon="7.3319">
        <ele>356</ele>
        <time>2016-01-16T23:32:18Z</time>
      </trkpt>
      <trkpt lat="49.02806" lon="7.33077">
        <ele>342</ele>
        <time>2016-01-16T23:34:18Z</time>
      </trkpt>
      <trkpt lat="49.02873" lon="7.33018">
        <ele>341</ele>
        <time>2016-01-16T23:36:18Z</time>
      </trkpt>
      <trkpt lat="49.03004" lon="7.3282">
        <ele>344</ele>
        <time>2016-01-16T23:38:18Z</time>
      </trkpt>
      <trkpt lat="49.03183" lon="7.32699">
        <ele>337</ele>
        <time>2016-01-16T23:40:18Z</time>
      </trkpt>
      <trkpt lat="49.03403" lon="7.32678">
        <ele>310</ele>
        <time>2016-01-16T23:42:18Z</time>
      </trkpt>
      <trkpt lat="49.03706" lon="7.32397">
        <ele>326</ele>
        <time>2016-01-16T23:44:18Z</time>
      </trkpt>
      <trkpt lat="49.03649" lon="7.32277">
        <ele>330</ele>
        <time>2016-01-16T23:46:18Z</time>
      </trkpt>
      <trkpt lat="49.03548" lon="7.32145">
        <ele>335</ele>
        <time>2016-01-16T23:48:18Z</time>
      </trkpt>
      <trkpt lat="49.03486" lon="7.32248">
        <ele>341</ele>
        <time>2016-01-16T23:50:18Z</time>
      </trkpt>
      <trkpt lat="49.03446" lon="7.32113">
        <ele>345</ele>
        <time>2016-01-16T23:52:18Z</time>
      </trkpt>
      <trkpt lat="49.0347" lon="7.32087">
        <ele>342</ele>
        <time>2016-01-16T23:54:18Z</time>
      </trkpt>
      <trkpt lat="49.03407" lon="7.31946">
        <ele>345</ele>
        <time>2016-01-16T23:56:18Z</time>
      </trkpt>
      <trkpt lat="49.03367" lon="7.31979">
        <ele>347</ele>
        <time>2016-01-16T23:58:18Z</time>
      </trkpt>
      <trkpt lat="49.03284" lon="7.31831">
        <ele>350</ele>
        <time>2016-01-17T00:00:18Z</time>
      </trkpt>
      <trkpt lat="49.03339" lon="7.31679">
        <ele>346</ele>
        <time>2016-01-17T00:02:18Z</time>
      </trkpt>
      <trkpt lat="49.03413" lon="7.31546">
        <ele>342</ele>
        <time>2016-01-17T00:04:18Z</time>
      </trkpt>
      <trkpt lat="49.03525" lon="7.31409">
        <ele>330</ele>
        <time>2016-01-17T00:06:18Z</time>
      </trkpt>
      <trkpt lat="49.03658" lon="7.31258">
        <ele>323</ele>
        <time>2016-01-17T00:08:18Z</time>
      </trkpt>
      <trkpt lat="49.03717" lon="7.3101">
        <ele>326</ele>
        <time>2016-01-17T00:10:18Z</time>
      </trkpt>
      <trkpt lat="49.03746" lon="7.30801">
        <ele>335</ele>
        <time>2016-01-17T00:12:18Z</time>
      </trkpt>
      <trkpt lat="49.03782" lon="7.30593">
        <ele>341</ele>
        <time>2016-01-17T00:14:18Z</time>
      </trkpt>
      <trkpt lat="49.0396" lon="7.30744">
        <ele>346</ele>
        <time>2016-01-17T00:16:18Z</time>
      </trkpt>
      <trkpt lat="49.04037" lon="7.30785">
        <ele>348</ele>
        <time>2016-01-17T00:18:18Z</time>
      </trkpt>
      <trkpt lat="49.04089" lon="7.30545">
        <ele>344</ele>
        <time>2016-01-17T00:20:18Z</time>
      </trkpt>
      <trkpt lat="49.04298" lon="7.30527">
        <ele>343</ele>
        <time>2016-01-17T00:22:18Z</time>
      </trkpt>
      <trkpt lat="49.04391" lon="7.30523">
        <ele>344</ele>
        <time>2016-01-17T00:24:18Z</time>
      </trkpt>
      <trkpt lat="49.04838" lon="7.30105">
        <ele>338</ele>
        <time>2016-01-17T00:26:18Z</time>
      </trkpt>
      <trkpt lat="49.04914" lon="7.29971">
        <ele>338</ele>
        <time>2016-01-17T00:28:18Z</time>
      </trkpt>
      <trkpt lat="49.04917" lon="7.30011">
        <ele>338</ele>
        <time>2016-01-17T00:30:18Z</time>
      </trkpt>
      <trkpt lat="49.04929" lon="7.29966">
        <ele>338</ele>
        <time>2016-01-17T00:32:18Z</time>
      </trkpt>
    </trkseg>
  </trk>
</gpx>